Details for KLM (Royal Dutch Airlines) at EHAM




Go Back


Latest METAR
Local Time

EHAM 252155Z 04003KT CAVOK 17/15 Q1019 NOSIG

26/05/2018, 00:11:22

Description
Results
KLM (Royal Dutch Airlines) Logo
Number of Pilots based at EHAM
2 Pilots Based here
Number of KLM (Royal Dutch Airlines) Flights Departed from EHAM
27 Flights Departed
Number of KLM (Royal Dutch Airlines) Flights Arrived at EHAM
31 Flights Arrived
Number of KLM (Royal Dutch Airlines) Schedules Departing from EHAM
267 Schedules
Number of KLM (Royal Dutch Airlines) Schedules Arriving at EHAM
282 Schedules
Number of KLM (Royal Dutch Airlines) Schedules Departing from EHAM availible today
198 Schedules Today
Number of KLM (Royal Dutch Airlines) Schedules Arriving at EHAM availible today
197 Schedules Today
Average Landing Rate at EHAM
-211 fpm
KLM (Royal Dutch Airlines) Average Landing Rate at EHAM
-198 fpm
Total Fuel Purchased at EHAM by KLM (Royal Dutch Airlines)
492,914.72 kgs / 1,086,679.79 lbs

Pilots Based at EHAM


Pilot ID
Pilot Name
Pilot Rank
No. of Flights
No. of Flying Hours
Youri Rutten
83
197.1
James Hatcher
126
521.08
Content